sensor_id;sensor_type;location;lat;lon;timestamp;pressure;altitude;pressure_sealevel;temperature;humidity
63306;BME280;50735;52.060;1.248;2023-04-06T00:02:07;101293.38;;;8.29;58.02
63306;BME280;50735;52.060;1.248;2023-04-06T00:04:39;101286.63;;;8.23;58.06
63306;BME280;50735;52.060;1.248;2023-04-06T00:07:11;101283.67;;;8.13;58.39
63306;BME280;50735;52.060;1.248;2023-04-06T00:09:43;101276.67;;;8.05;58.32
63306;BME280;50735;52.060;1.248;2023-04-06T00:12:14;101271.66;;;8.11;58.50
63306;BME280;50735;52.060;1.248;2023-04-06T00:14:46;101267.11;;;8.11;58.85
63306;BME280;50735;52.060;1.248;2023-04-06T00:17:18;101263.83;;;8.13;58.67
63306;BME280;50735;52.060;1.248;2023-04-06T00:19:50;101261.32;;;8.01;58.92
63306;BME280;50735;52.060;1.248;2023-04-06T00:22:22;101255.01;;;8.00;58.87
63306;BME280;50735;52.060;1.248;2023-04-06T00:24:55;101253.58;;;8.01;58.60
63306;BME280;50735;52.060;1.248;2023-04-06T00:27:26;101249.28;;;8.12;59.08
63306;BME280;50735;52.060;1.248;2023-04-06T00:29:58;101248.71;;;7.81;59.39
63306;BME280;50735;52.060;1.248;2023-04-06T00:32:30;101245.40;;;7.48;59.84
63306;BME280;50735;52.060;1.248;2023-04-06T00:35:02;101241.76;;;7.90;59.62
63306;BME280;50735;52.060;1.248;2023-04-06T00:37:34;101237.26;;;8.00;59.32
63306;BME280;50735;52.060;1.248;2023-04-06T00:40:07;101233.74;;;7.85;59.83
63306;BME280;50735;52.060;1.248;2023-04-06T00:42:40;101231.06;;;7.95;59.46
63306;BME280;50735;52.060;1.248;2023-04-06T00:45:13;101227.84;;;7.99;59.64
63306;BME280;50735;52.060;1.248;2023-04-06T00:47:45;101224.32;;;7.87;60.04
63306;BME280;50735;52.060;1.248;2023-04-06T00:50:17;101220.11;;;7.83;60.39
63306;BME280;50735;52.060;1.248;2023-04-06T00:52:49;101215.54;;;7.86;60.29
63306;BME280;50735;52.060;1.248;2023-04-06T00:55:21;101211.75;;;8.05;59.57
63306;BME280;50735;52.060;1.248;2023-04-06T00:57:54;101209.28;;;7.88;60.45
63306;BME280;50735;52.060;1.248;2023-04-06T01:00:26;101201.94;;;7.86;60.26
63306;BME280;50735;52.060;1.248;2023-04-06T01:02:58;101202.84;;;8.03;59.93
63306;BME280;50735;52.060;1.248;2023-04-06T01:05:30;101197.33;;;7.80;60.09
63306;BME280;50735;52.060;1.248;2023-04-06T01:08:04;101192.22;;;7.87;60.54
63306;BME280;50735;52.060;1.248;2023-04-06T01:10:36;101191.16;;;7.89;60.75
63306;BME280;50735;52.060;1.248;2023-04-06T01:13:08;101186.11;;;7.85;60.70
63306;BME280;50735;52.060;1.248;2023-04-06T01:15:40;101181.47;;;8.00;60.08
63306;BME280;50735;52.060;1.248;2023-04-06T01:18:12;101180.02;;;8.00;60.22
63306;BME280;50735;52.060;1.248;2023-04-06T01:20:43;101175.91;;;7.85;60.78
63306;BME280;50735;52.060;1.248;2023-04-06T01:23:16;101170.85;;;7.70;61.15
63306;BME280;50735;52.060;1.248;2023-04-06T01:25:47;101169.88;;;7.78;60.90
63306;BME280;50735;52.060;1.248;2023-04-06T01:28:20;101163.53;;;7.63;61.67
63306;BME280;50735;52.060;1.248;2023-04-06T01:30:52;101161.10;;;7.65;61.54
63306;BME280;50735;52.060;1.248;2023-04-06T01:33:23;101157.77;;;7.76;61.28
63306;BME280;50735;52.060;1.248;2023-04-06T01:35:55;101154.73;;;7.68;61.53
63306;BME280;50735;52.060;1.248;2023-04-06T01:38:27;101147.62;;;7.48;61.51
63306;BME280;50735;52.060;1.248;2023-04-06T01:40:59;101143.16;;;7.70;61.42
63306;BME280;50735;52.060;1.248;2023-04-06T01:43:31;101138.14;;;7.54;62.13
63306;BME280;50735;52.060;1.248;2023-04-06T01:46:04;101135.89;;;7.47;62.33
63306;BME280;50735;52.060;1.248;2023-04-06T01:48:36;101130.32;;;7.28;62.16
63306;BME280;50735;52.060;1.248;2023-04-06T01:51:08;101129.20;;;7.50;62.39
63306;BME280;50735;52.060;1.248;2023-04-06T01:53:40;101123.17;;;7.51;62.14
63306;BME280;50735;52.060;1.248;2023-04-06T01:56:12;101122.21;;;7.69;61.63
63306;BME280;50735;52.060;1.248;2023-04-06T01:58:44;101116.97;;;7.79;61.56
63306;BME280;50735;52.060;1.248;2023-04-06T02:01:16;101112.24;;;7.92;61.36
63306;BME280;50735;52.060;1.248;2023-04-06T02:03:49;101108.27;;;8.03;60.83
63306;BME280;50735;52.060;1.248;2023-04-06T02:06:20;101107.72;;;7.91;61.12
63306;BME280;50735;52.060;1.248;2023-04-06T02:08:52;101098.13;;;7.79;61.50
63306;BME280;50735;52.060;1.248;2023-04-06T02:11:24;101097.38;;;7.77;61.59
63306;BME280;50735;52.060;1.248;2023-04-06T02:13:56;101100.48;;;7.49;62.25
63306;BME280;50735;52.060;1.248;2023-04-06T02:16:28;101091.97;;;7.54;62.50
63306;BME280;50735;52.060;1.248;2023-04-06T02:18:59;101087.81;;;7.52;62.56
63306;BME280;50735;52.060;1.248;2023-04-06T02:21:32;101086.53;;;7.75;61.77
63306;BME280;50735;52.060;1.248;2023-04-06T02:24:04;101082.69;;;7.81;61.57
63306;BME280;50735;52.060;1.248;2023-04-06T02:26:36;101078.83;;;7.80;62.04
63306;BME280;50735;52.060;1.248;2023-04-06T02:29:08;101072.98;;;7.53;62.82
63306;BME280;50735;52.060;1.248;2023-04-06T02:31:40;101072.01;;;7.78;62.51
63306;BME280;50735;52.060;1.248;2023-04-06T02:34:12;101069.63;;;7.55;62.85
63306;BME280;50735;52.060;1.248;2023-04-06T02:36:44;101068.97;;;7.56;62.87
63306;BME280;50735;52.060;1.248;2023-04-06T02:39:17;101065.20;;;7.32;63.00
63306;BME280;50735;52.060;1.248;2023-04-06T02:41:48;101057.86;;;7.47;63.41
63306;BME280;50735;52.060;1.248;2023-04-06T02:44:21;101059.77;;;7.20;63.44
63306;BME280;50735;52.060;1.248;2023-04-06T02:46:53;101056.85;;;7.36;63.20
63306;BME280;50735;52.060;1.248;2023-04-06T02:49:25;101052.92;;;7.33;63.28
63306;BME280;50735;52.060;1.248;2023-04-06T02:51:57;101049.49;;;7.37;63.08
63306;BME280;50735;52.060;1.248;2023-04-06T02:54:29;101046.41;;;6.96;64.04
63306;BME280;50735;52.060;1.248;2023-04-06T02:57:01;101049.69;;;7.03;64.14
63306;BME280;50735;52.060;1.248;2023-04-06T02:59:33;101042.18;;;6.94;64.63
63306;BME280;50735;52.060;1.248;2023-04-06T03:02:04;101039.74;;;7.19;64.10
63306;BME280;50735;52.060;1.248;2023-04-06T03:04:36;101033.97;;;7.12;64.22
63306;BME280;50735;52.060;1.248;2023-04-06T03:07:07;101031.80;;;7.42;63.37
63306;BME280;50735;52.060;1.248;2023-04-06T03:09:39;101028.19;;;7.36;64.20
63306;BME280;50735;52.060;1.248;2023-04-06T03:12:10;101025.29;;;7.31;63.82
63306;BME280;50735;52.060;1.248;2023-04-06T03:14:43;101021.44;;;7.45;63.34
63306;BME280;50735;52.060;1.248;2023-04-06T03:17:15;101016.73;;;7.60;63.07
63306;BME280;50735;52.060;1.248;2023-04-06T03:19:46;101015.52;;;7.85;63.14
63306;BME280;50735;52.060;1.248;2023-04-06T03:22:19;101010.56;;;7.75;62.60
63306;BME280;50735;52.060;1.248;2023-04-06T03:24:52;101006.98;;;7.59;63.08
63306;BME280;50735;52.060;1.248;2023-04-06T03:27:24;101002.15;;;7.51;62.92
63306;BME280;50735;52.060;1.248;2023-04-06T03:29:56;100999.57;;;7.69;63.03
63306;BME280;50735;52.060;1.248;2023-04-06T03:32:28;101001.03;;;7.68;63.47
63306;BME280;50735;52.060;1.248;2023-04-06T03:35:00;100994.70;;;7.54;63.42
63306;BME280;50735;52.060;1.248;2023-04-06T03:37:32;100991.32;;;7.26;64.20
63306;BME280;50735;52.060;1.248;2023-04-06T03:40:05;100988.31;;;7.41;63.85
63306;BME280;50735;52.060;1.248;2023-04-06T03:42:37;100984.17;;;7.15;64.49
63306;BME280;50735;52.060;1.248;2023-04-06T03:45:09;100981.24;;;7.38;63.91
63306;BME280;50735;52.060;1.248;2023-04-06T03:47:42;100977.43;;;7.46;63.64
63306;BME280;50735;52.060;1.248;2023-04-06T03:50:14;100975.75;;;7.36;64.01
63306;BME280;50735;52.060;1.248;2023-04-06T03:52:45;100973.55;;;7.30;64.24
63306;BME280;50735;52.060;1.248;2023-04-06T03:55:17;100971.31;;;7.42;64.20
63306;BME280;50735;52.060;1.248;2023-04-06T03:57:49;100969.67;;;7.32;64.27
63306;BME280;50735;52.060;1.248;2023-04-06T04:00:22;100964.44;;;7.04;65.24
63306;BME280;50735;52.060;1.248;2023-04-06T04:02:54;100962.87;;;7.09;64.95
63306;BME280;50735;52.060;1.248;2023-04-06T04:05:26;100961.35;;;7.18;64.64
63306;BME280;50735;52.060;1.248;2023-04-06T04:07:57;100958.50;;;7.29;64.59
63306;BME280;50735;52.060;1.248;2023-04-06T04:10:29;100957.32;;;7.35;64.33
63306;BME280;50735;52.060;1.248;2023-04-06T04:13:01;100952.42;;;7.29;64.43
63306;BME280;50735;52.060;1.248;2023-04-06T04:15:33;100949.93;;;7.43;64.38
63306;BME280;50735;52.060;1.248;2023-04-06T04:18:05;100951.50;;;7.62;64.53
63306;BME280;50735;52.060;1.248;2023-04-06T04:20:37;100945.61;;;7.32;64.64
63306;BME280;50735;52.060;1.248;2023-04-06T04:23:08;100945.84;;;7.34;64.47
63306;BME280;50735;52.060;1.248;2023-04-06T04:25:40;100944.66;;;7.23;64.85
63306;BME280;50735;52.060;1.248;2023-04-06T04:28:12;100944.29;;;7.32;64.72
63306;BME280;50735;52.060;1.248;2023-04-06T04:30:44;100944.34;;;7.68;64.11
63306;BME280;50735;52.060;1.248;2023-04-06T04:33:16;100938.72;;;7.28;64.82
63306;BME280;50735;52.060;1.248;2023-04-06T04:35:48;100939.32;;;7.32;64.74
63306;BME280;50735;52.060;1.248;2023-04-06T04:38:19;100939.23;;;7.60;64.02
63306;BME280;50735;52.060;1.248;2023-04-06T04:40:52;100936.90;;;7.40;64.47
63306;BME280;50735;52.060;1.248;2023-04-06T04:43:24;100934.24;;;7.57;64.15
63306;BME280;50735;52.060;1.248;2023-04-06T04:45:56;100941.15;;;7.49;64.40
63306;BME280;50735;52.060;1.248;2023-04-06T04:48:27;100935.44;;;7.31;64.99
63306;BME280;50735;52.060;1.248;2023-04-06T04:50:59;100931.36;;;7.49;64.39
63306;BME280;50735;52.060;1.248;2023-04-06T04:53:32;100929.61;;;7.32;65.03
63306;BME280;50735;52.060;1.248;2023-04-06T04:56:04;100927.71;;;7.22;65.19
63306;BME280;50735;52.060;1.248;2023-04-06T04:58:36;100927.40;;;7.53;65.11
63306;BME280;50735;52.060;1.248;2023-04-06T05:01:08;100919.36;;;7.47;65.19
63306;BME280;50735;52.060;1.248;2023-04-06T05:03:40;100924.18;;;7.69;64.79
63306;BME280;50735;52.060;1.248;2023-04-06T05:06:12;100922.60;;;7.33;65.23
63306;BME280;50735;52.060;1.248;2023-04-06T05:08:44;100918.66;;;7.21;65.31
63306;BME280;50735;52.060;1.248;2023-04-06T05:11:16;100916.50;;;7.30;65.26
63306;BME280;50735;52.060;1.248;2023-04-06T05:13:47;100915.98;;;7.35;65.00
63306;BME280;50735;52.060;1.248;2023-04-06T05:16:20;100916.03;;;7.13;65.62
63306;BME280;50735;52.060;1.248;2023-04-06T05:18:52;100909.70;;;7.32;65.46
63306;BME280;50735;52.060;1.248;2023-04-06T05:21:24;100906.22;;;7.40;65.78
63306;BME280;50735;52.060;1.248;2023-04-06T05:23:56;100905.33;;;7.37;65.26
63306;BME280;50735;52.060;1.248;2023-04-06T05:26:28;100903.92;;;7.43;65.04
63306;BME280;50735;52.060;1.248;2023-04-06T05:29:01;100900.43;;;7.55;64.65
63306;BME280;50735;52.060;1.248;2023-04-06T05:31:33;100898.33;;;7.55;64.73
63306;BME280;50735;52.060;1.248;2023-04-06T05:34:05;100899.72;;;7.53;64.61
63306;BME280;50735;52.060;1.248;2023-04-06T05:36:37;100898.25;;;7.44;64.96
63306;BME280;50735;52.060;1.248;2023-04-06T05:39:09;100898.23;;;7.43;65.12
63306;BME280;50735;52.060;1.248;2023-04-06T05:41:41;100898.27;;;7.60;64.61
63306;BME280;50735;52.060;1.248;2023-04-06T05:44:13;100896.41;;;7.40;65.33
63306;BME280;50735;52.060;1.248;2023-04-06T05:46:45;100897.33;;;7.47;65.21
63306;BME280;50735;52.060;1.248;2023-04-06T05:49:17;100897.71;;;7.44;65.37
63306;BME280;50735;52.060;1.248;2023-04-06T05:51:48;100897.09;;;7.43;65.55
63306;BME280;50735;52.060;1.248;2023-04-06T05:54:20;100889.69;;;7.52;65.35
63306;BME280;50735;52.060;1.248;2023-04-06T05:56:52;100887.12;;;7.62;64.86
63306;BME280;50735;52.060;1.248;2023-04-06T05:59:24;100884.18;;;7.68;64.68
63306;BME280;50735;52.060;1.248;2023-04-06T06:01:56;100884.90;;;7.70;65.41
63306;BME280;50735;52.060;1.248;2023-04-06T06:04:27;100881.98;;;7.74;64.61
63306;BME280;50735;52.060;1.248;2023-04-06T06:06:59;100881.39;;;8.00;64.49
63306;BME280;50735;52.060;1.248;2023-04-06T06:09:31;100879.36;;;7.67;64.83
63306;BME280;50735;52.060;1.248;2023-04-06T06:12:03;100875.04;;;7.79;64.47
63306;BME280;50735;52.060;1.248;2023-04-06T06:14:35;100874.59;;;7.86;64.36
63306;BME280;50735;52.060;1.248;2023-04-06T06:17:07;100874.13;;;7.90;64.47
63306;BME280;50735;52.060;1.248;2023-04-06T06:19:39;100871.87;;;7.93;64.25
63306;BME280;50735;52.060;1.248;2023-04-06T06:22:11;100876.80;;;8.01;64.03
63306;BME280;50735;52.060;1.248;2023-04-06T06:24:43;100877.88;;;7.85;64.13
63306;BME280;50735;52.060;1.248;2023-04-06T06:27:14;100875.51;;;7.82;64.00
63306;BME280;50735;52.060;1.248;2023-04-06T06:29:46;100875.02;;;7.96;64.53
63306;BME280;50735;52.060;1.248;2023-04-06T06:32:18;100872.32;;;7.70;64.87
63306;BME280;50735;52.060;1.248;2023-04-06T06:34:50;100869.91;;;7.58;65.58
63306;BME280;50735;52.060;1.248;2023-04-06T06:37:22;100868.18;;;7.59;65.60
63306;BME280;50735;52.060;1.248;2023-04-06T06:39:53;100867.68;;;7.81;65.03
63306;BME280;50735;52.060;1.248;2023-04-06T06:42:25;100870.14;;;7.87;65.32
63306;BME280;50735;52.060;1.248;2023-04-06T06:44:57;100868.26;;;7.83;65.20
63306;BME280;50735;52.060;1.248;2023-04-06T06:47:28;100869.51;;;8.05;64.44
63306;BME280;50735;52.060;1.248;2023-04-06T06:50:00;100866.75;;;8.10;64.46
63306;BME280;50735;52.060;1.248;2023-04-06T06:52:32;100864.68;;;7.92;65.08
63306;BME280;50735;52.060;1.248;2023-04-06T06:55:04;100864.80;;;7.87;65.43
63306;BME280;50735;52.060;1.248;2023-04-06T06:57:35;100864.75;;;7.39;66.38
63306;BME280;50735;52.060;1.248;2023-04-06T07:00:08;100864.61;;;7.57;66.46
63306;BME280;50735;52.060;1.248;2023-04-06T07:02:40;100860.36;;;7.90;65.44
63306;BME280;50735;52.060;1.248;2023-04-06T07:05:12;100860.24;;;7.68;65.91
63306;BME280;50735;52.060;1.248;2023-04-06T07:07:44;100860.49;;;7.90;65.65
63306;BME280;50735;52.060;1.248;2023-04-06T07:10:16;100865.82;;;7.80;66.18
63306;BME280;50735;52.060;1.248;2023-04-06T07:12:47;100860.37;;;7.80;66.05
63306;BME280;50735;52.060;1.248;2023-04-06T07:15:20;100860.48;;;7.99;65.73
63306;BME280;50735;52.060;1.248;2023-04-06T07:17:52;100858.26;;;8.06;65.68
63306;BME280;50735;52.060;1.248;2023-04-06T07:20:24;100859.15;;;8.18;65.38
63306;BME280;50735;52.060;1.248;2023-04-06T07:22:55;100855.84;;;8.14;64.88
63306;BME280;50735;52.060;1.248;2023-04-06T07:25:27;100855.90;;;8.36;64.96
63306;BME280;50735;52.060;1.248;2023-04-06T07:27:59;100855.59;;;8.44;64.78
63306;BME280;50735;52.060;1.248;2023-04-06T07:30:31;100850.77;;;8.22;65.05
63306;BME280;50735;52.060;1.248;2023-04-06T07:33:03;100854.59;;;8.20;65.66
63306;BME280;50735;52.060;1.248;2023-04-06T07:35:35;100854.70;;;8.34;65.55
63306;BME280;50735;52.060;1.248;2023-04-06T07:38:08;100854.71;;;8.36;65.55
63306;BME280;50735;52.060;1.248;2023-04-06T07:40:39;100852.35;;;8.23;65.65
63306;BME280;50735;52.060;1.248;2023-04-06T07:43:11;100850.15;;;8.35;65.32
63306;BME280;50735;52.060;1.248;2023-04-06T07:45:43;100848.51;;;8.39;65.46
63306;BME280;50735;52.060;1.248;2023-04-06T07:48:15;100849.91;;;8.52;65.30
63306;BME280;50735;52.060;1.248;2023-04-06T07:50:46;100853.83;;;8.28;65.60
63306;BME280;50735;52.060;1.248;2023-04-06T07:53:18;100853.10;;;8.48;65.84
63306;BME280;50735;52.060;1.248;2023-04-06T07:55:50;100857.64;;;8.27;66.68
63306;BME280;50735;52.060;1.248;2023-04-06T07:58:22;100855.70;;;8.00;66.38
63306;BME280;50735;52.060;1.248;2023-04-06T08:00:53;100858.61;;;8.29;66.79
63306;BME280;50735;52.060;1.248;2023-04-06T08:03:25;100853.02;;;8.16;67.69
63306;BME280;50735;52.060;1.248;2023-04-06T08:05:57;100856.95;;;8.01;67.58
63306;BME280;50735;52.060;1.248;2023-04-06T08:08:29;100849.85;;;7.76;67.47
63306;BME280;50735;52.060;1.248;2023-04-06T08:11:01;100848.70;;;7.76;68.53
63306;BME280;50735;52.060;1.248;2023-04-06T08:13:33;100844.44;;;7.59;68.20
63306;BME280;50735;52.060;1.248;2023-04-06T08:16:05;100847.90;;;8.06;68.22
63306;BME280;50735;52.060;1.248;2023-04-06T08:18:38;100852.28;;;8.01;68.33
63306;BME280;50735;52.060;1.248;2023-04-06T08:21:11;100848.25;;;8.39;67.56
63306;BME280;50735;52.060;1.248;2023-04-06T08:23:42;100852.63;;;8.31;67.53
63306;BME280;50735;52.060;1.248;2023-04-06T08:26:14;100851.58;;;8.03;67.43
63306;BME280;50735;52.060;1.248;2023-04-06T08:28:46;100852.94;;;8.18;67.31
63306;BME280;50735;52.060;1.248;2023-04-06T08:31:17;100853.30;;;8.28;66.83
63306;BME280;50735;52.060;1.248;2023-04-06T08:33:49;100854.34;;;8.53;66.53
63306;BME280;50735;52.060;1.248;2023-04-06T08:36:21;100852.82;;;8.32;66.60
63306;BME280;50735;52.060;1.248;2023-04-06T08:38:52;100855.50;;;8.38;67.32
63306;BME280;50735;52.060;1.248;2023-04-06T08:41:24;100854.14;;;8.41;67.23
63306;BME280;50735;52.060;1.248;2023-04-06T08:43:58;100853.77;;;8.18;67.68
63306;BME280;50735;52.060;1.248;2023-04-06T08:46:30;100858.30;;;8.44;67.44
63306;BME280;50735;52.060;1.248;2023-04-06T08:49:03;100862.67;;;8.17;67.59
63306;BME280;50735;52.060;1.248;2023-04-06T08:51:37;100857.90;;;8.63;66.74
63306;BME280;50735;52.060;1.248;2023-04-06T08:54:09;100858.67;;;8.36;67.85
63306;BME280;50735;52.060;1.248;2023-04-06T08:56:41;100856.26;;;8.55;67.42
63306;BME280;50735;52.060;1.248;2023-04-06T08:59:14;100850.96;;;8.97;66.77
63306;BME280;50735;52.060;1.248;2023-04-06T09:01:47;100851.68;;;9.22;65.71
63306;BME280;50735;52.060;1.248;2023-04-06T09:04:18;100849.27;;;9.71;65.07
63306;BME280;50735;52.060;1.248;2023-04-06T09:06:50;100855.71;;;9.35;64.35
63306;BME280;50735;52.060;1.248;2023-04-06T09:09:22;100857.67;;;9.28;65.11
63306;BME280;50735;52.060;1.248;2023-04-06T09:11:53;100856.68;;;9.43;64.87
63306;BME280;50735;52.060;1.248;2023-04-06T09:14:41;100853.60;;;9.81;63.84
63306;BME280;50735;52.060;1.248;2023-04-06T09:17:20;100855.78;;;9.66;63.62
63306;BME280;50735;52.060;1.248;2023-04-06T09:19:52;100860.11;;;9.48;63.77
63306;BME280;50735;52.060;1.248;2023-04-06T09:22:24;100861.30;;;9.41;64.22
63306;BME280;50735;52.060;1.248;2023-04-06T09:24:56;100861.15;;;9.37;64.52
63306;BME280;50735;52.060;1.248;2023-04-06T09:27:32;100855.73;;;9.36;64.44
63306;BME280;50735;52.060;1.248;2023-04-06T09:30:06;100857.30;;;9.37;65.04
63306;BME280;50735;52.060;1.248;2023-04-06T09:32:47;100859.90;;;9.14;64.68
63306;BME280;50735;52.060;1.248;2023-04-06T09:35:20;100859.50;;;9.48;64.19
63306;BME280;50735;52.060;1.248;2023-04-06T09:37:53;100862.39;;;9.23;64.41
63306;BME280;50735;52.060;1.248;2023-04-06T09:40:25;100863.15;;;9.29;64.20
63306;BME280;50735;52.060;1.248;2023-04-06T09:42:57;100861.17;;;9.47;63.83
63306;BME280;50735;52.060;1.248;2023-04-06T09:45:29;100856.74;;;9.04;64.75
63306;BME280;50735;52.060;1.248;2023-04-06T09:48:03;100860.80;;;9.24;64.46
63306;BME280;50735;52.060;1.248;2023-04-06T09:50:35;100855.82;;;9.19;65.19
63306;BME280;50735;52.060;1.248;2023-04-06T09:53:07;100852.96;;;9.06;65.55
63306;BME280;50735;52.060;1.248;2023-04-06T09:55:42;100853.10;;;8.71;66.03
63306;BME280;50735;52.060;1.248;2023-04-06T09:58:16;100856.98;;;8.84;66.20
63306;BME280;50735;52.060;1.248;2023-04-06T10:00:53;100856.67;;;8.67;66.22
63306;BME280;50735;52.060;1.248;2023-04-06T10:03:36;100856.51;;;9.07;66.49
63306;BME280;50735;52.060;1.248;2023-04-06T10:06:13;100854.41;;;8.85;65.81
63306;BME280;50735;52.060;1.248;2023-04-06T10:08:47;100853.93;;;9.13;65.73
63306;BME280;50735;52.060;1.248;2023-04-06T10:11:21;100848.78;;;9.52;65.13
63306;BME280;50735;52.060;1.248;2023-04-06T10:13:55;100852.66;;;9.41;65.20
63306;BME280;50735;52.060;1.248;2023-04-06T10:16:28;100844.06;;;10.03;64.30
63306;BME280;50735;52.060;1.248;2023-04-06T10:19:04;100845.81;;;9.81;64.90
63306;BME280;50735;52.060;1.248;2023-04-06T10:21:38;100844.37;;;10.05;63.93
63306;BME280;50735;52.060;1.248;2023-04-06T10:24:12;100845.04;;;10.20;63.95
63306;BME280;50735;52.060;1.248;2023-04-06T10:26:57;100840.40;;;10.31;62.87
63306;BME280;50735;52.060;1.248;2023-04-06T10:29:42;100843.72;;;10.17;63.64
63306;BME280;50735;52.060;1.248;2023-04-06T10:32:14;100838.88;;;10.05;63.26
63306;BME280;50735;52.060;1.248;2023-04-06T10:34:45;100838.26;;;10.54;62.56
63306;BME280;50735;52.060;1.248;2023-04-06T10:37:17;100838.67;;;10.97;62.83
63306;BME280;50735;52.060;1.248;2023-04-06T10:39:52;100835.33;;;10.78;61.75
63306;BME280;50735;52.060;1.248;2023-04-06T10:42:24;100835.48;;;10.86;61.91
63306;BME280;50735;52.060;1.248;2023-04-06T10:44:56;100834.91;;;10.37;61.85
63306;BME280;50735;52.060;1.248;2023-04-06T10:47:38;100833.79;;;10.58;61.83
63306;BME280;50735;52.060;1.248;2023-04-06T10:50:14;100839.77;;;10.01;62.67
63306;BME280;50735;52.060;1.248;2023-04-06T10:52:47;100843.84;;;9.28;64.27
63306;BME280;50735;52.060;1.248;2023-04-06T10:55:19;100847.86;;;9.25;63.97
63306;BME280;50735;52.060;1.248;2023-04-06T10:57:53;100837.05;;;10.03;63.87
63306;BME280;50735;52.060;1.248;2023-04-06T11:00:25;100842.81;;;9.97;63.32
63306;BME280;50735;52.060;1.248;2023-04-06T11:02:59;100838.89;;;9.99;62.95
63306;BME280;50735;52.060;1.248;2023-04-06T11:05:31;100835.81;;;10.04;62.84
63306;BME280;50735;52.060;1.248;2023-04-06T11:08:03;100833.06;;;10.21;63.15
63306;BME280;50735;52.060;1.248;2023-04-06T11:10:35;100839.26;;;10.57;61.35
63306;BME280;50735;52.060;1.248;2023-04-06T11:13:06;100834.94;;;10.10;61.67
63306;BME280;50735;52.060;1.248;2023-04-06T11:15:38;100833.00;;;10.39;61.74
63306;BME280;50735;52.060;1.248;2023-04-06T11:18:10;100835.79;;;10.84;61.18
63306;BME280;50735;52.060;1.248;2023-04-06T11:20:47;100838.85;;;10.83;60.65
63306;BME280;50735;52.060;1.248;2023-04-06T11:23:22;100842.28;;;10.66;60.05
63306;BME280;50735;52.060;1.248;2023-04-06T11:25:54;100837.70;;;10.60;61.05
63306;BME280;50735;52.060;1.248;2023-04-06T11:28:26;100835.03;;;10.35;60.58
63306;BME280;50735;52.060;1.248;2023-04-06T11:30:58;100836.41;;;10.74;60.29
63306;BME280;50735;52.060;1.248;2023-04-06T11:33:35;100829.11;;;10.50;60.18
63306;BME280;50735;52.060;1.248;2023-04-06T11:36:07;100830.49;;;10.61;61.20
63306;BME280;50735;52.060;1.248;2023-04-06T11:38:39;100837.49;;;10.91;60.95
63306;BME280;50735;52.060;1.248;2023-04-06T11:41:11;100836.52;;;11.27;58.79
63306;BME280;50735;52.060;1.248;2023-04-06T11:43:47;100839.05;;;11.65;58.30
63306;BME280;50735;52.060;1.248;2023-04-06T11:46:19;100842.64;;;12.19;58.41
63306;BME280;50735;52.060;1.248;2023-04-06T11:48:51;100847.53;;;12.39;56.29
63306;BME280;50735;52.060;1.248;2023-04-06T11:51:23;100852.09;;;12.18;55.03
63306;BME280;50735;52.060;1.248;2023-04-06T11:53:55;100849.20;;;12.70;54.25
63306;BME280;50735;52.060;1.248;2023-04-06T11:56:28;100849.35;;;11.99;53.95
63306;BME280;50735;52.060;1.248;2023-04-06T11:59:00;100852.70;;;12.27;54.20
63306;BME280;50735;52.060;1.248;2023-04-06T12:01:32;100853.43;;;12.25;54.08
63306;BME280;50735;52.060;1.248;2023-04-06T12:04:04;100855.46;;;11.99;54.19
63306;BME280;50735;52.060;1.248;2023-04-06T12:06:36;100851.84;;;11.86;54.22
63306;BME280;50735;52.060;1.248;2023-04-06T12:09:07;100852.14;;;11.64;54.33
63306;BME280;50735;52.060;1.248;2023-04-06T12:11:39;100857.55;;;11.95;54.87
63306;BME280;50735;52.060;1.248;2023-04-06T12:14:11;100855.23;;;11.66;55.00
63306;BME280;50735;52.060;1.248;2023-04-06T12:16:44;100855.00;;;12.21;54.46
63306;BME280;50735;52.060;1.248;2023-04-06T12:19:15;100860.16;;;12.62;53.52
63306;BME280;50735;52.060;1.248;2023-04-06T12:21:47;100863.66;;;12.65;51.88
63306;BME280;50735;52.060;1.248;2023-04-06T12:24:19;100866.86;;;12.73;51.98
63306;BME280;50735;52.060;1.248;2023-04-06T12:26:51;100872.84;;;12.95;51.24
63306;BME280;50735;52.060;1.248;2023-04-06T12:29:24;100869.07;;;13.12;49.99
63306;BME280;50735;52.060;1.248;2023-04-06T12:31:56;100870.91;;;12.79;48.85
63306;BME280;50735;52.060;1.248;2023-04-06T12:34:28;100866.39;;;13.10;50.15
63306;BME280;50735;52.060;1.248;2023-04-06T12:37:00;100871.02;;;13.29;49.47
63306;BME280;50735;52.060;1.248;2023-04-06T12:39:31;100871.64;;;13.37;49.24
63306;BME280;50735;52.060;1.248;2023-04-06T12:42:03;100872.04;;;13.58;47.87
63306;BME280;50735;52.060;1.248;2023-04-06T12:44:35;100869.60;;;13.48;48.53
63306;BME280;50735;52.060;1.248;2023-04-06T12:47:07;100868.47;;;13.59;48.83
63306;BME280;50735;52.060;1.248;2023-04-06T12:49:38;100868.27;;;13.86;48.64
63306;BME280;50735;52.060;1.248;2023-04-06T12:52:10;100865.90;;;14.13;48.44
63306;BME280;50735;52.060;1.248;2023-04-06T12:54:42;100864.30;;;14.60;47.76
63306;BME280;50735;52.060;1.248;2023-04-06T12:57:14;100869.93;;;14.87;44.88
63306;BME280;50735;52.060;1.248;2023-04-06T12:59:45;100874.66;;;14.82;43.43
63306;BME280;50735;52.060;1.248;2023-04-06T13:02:17;100878.59;;;15.01;42.25
63306;BME280;50735;52.060;1.248;2023-04-06T13:04:49;100880.33;;;14.45;43.60
63306;BME280;50735;52.060;1.248;2023-04-06T13:07:21;100882.98;;;14.69;43.46
63306;BME280;50735;52.060;1.248;2023-04-06T13:09:53;100889.63;;;15.34;41.55
63306;BME280;50735;52.060;1.248;2023-04-06T13:12:25;100887.94;;;15.53;43.53
63306;BME280;50735;52.060;1.248;2023-04-06T13:14:57;100887.27;;;16.22;42.49
63306;BME280;50735;52.060;1.248;2023-04-06T13:17:29;100892.31;;;16.28;38.81
63306;BME280;50735;52.060;1.248;2023-04-06T13:20:01;100894.91;;;16.73;40.35
63306;BME280;50735;52.060;1.248;2023-04-06T13:22:33;100892.36;;;16.18;38.78
63306;BME280;50735;52.060;1.248;2023-04-06T13:25:05;100894.73;;;15.63;39.66